sensor_id;sensor_type;location;lat;lon;timestamp;temperature;humidity
63094;DHT22;49183;51.380;0.098;2024-02-04T00:00:29;7.10;94.10
63094;DHT22;49183;51.380;0.098;2024-02-04T00:02:57;7.10;94.00
63094;DHT22;49183;51.380;0.098;2024-02-04T00:05:24;7.10;94.10
63094;DHT22;49183;51.380;0.098;2024-02-04T00:07:52;7.20;94.10
63094;DHT22;49183;51.380;0.098;2024-02-04T00:10:21;7.20;94.10
63094;DHT22;49183;51.380;0.098;2024-02-04T00:12:49;7.20;94.10
63094;DHT22;49183;51.380;0.098;2024-02-04T00:15:17;7.30;94.00
63094;DHT22;49183;51.380;0.098;2024-02-04T00:17:45;7.30;94.00
63094;DHT22;49183;51.380;0.098;2024-02-04T00:20:13;7.30;94.00
63094;DHT22;49183;51.380;0.098;2024-02-04T00:22:41;7.40;93.90
63094;DHT22;49183;51.380;0.098;2024-02-04T00:25:09;7.40;93.80
63094;DHT22;49183;51.380;0.098;2024-02-04T00:27:39;7.50;93.80
63094;DHT22;49183;51.380;0.098;2024-02-04T00:30:07;7.50;93.80
63094;DHT22;49183;51.380;0.098;2024-02-04T00:32:35;7.50;93.70
63094;DHT22;49183;51.380;0.098;2024-02-04T00:35:05;7.50;93.70
63094;DHT22;49183;51.380;0.098;2024-02-04T00:37:33;7.50;93.70
63094;DHT22;49183;51.380;0.098;2024-02-04T00:40:00;7.50;93.70
63094;DHT22;49183;51.380;0.098;2024-02-04T00:42:29;7.50;93.70
63094;DHT22;49183;51.380;0.098;2024-02-04T00:44:57;7.50;93.60
63094;DHT22;49183;51.380;0.098;2024-02-04T00:47:25;7.50;93.60
63094;DHT22;49183;51.380;0.098;2024-02-04T00:49:53;7.50;93.60
63094;DHT22;49183;51.380;0.098;2024-02-04T00:52:21;7.60;93.60
63094;DHT22;49183;51.380;0.098;2024-02-04T00:54:49;7.50;93.50
63094;DHT22;49183;51.380;0.098;2024-02-04T00:57:17;7.50;93.40
63094;DHT22;49183;51.380;0.098;2024-02-04T00:59:45;7.50;93.40
63094;DHT22;49183;51.380;0.098;2024-02-04T01:02:13;7.40;93.30
63094;DHT22;49183;51.380;0.098;2024-02-04T01:04:41;7.40;93.40
63094;DHT22;49183;51.380;0.098;2024-02-04T01:07:09;7.40;93.50
63094;DHT22;49183;51.380;0.098;2024-02-04T01:09:36;7.40;93.50
63094;DHT22;49183;51.380;0.098;2024-02-04T01:12:05;7.40;93.60
63094;DHT22;49183;51.380;0.098;2024-02-04T01:14:33;7.50;93.60
63094;DHT22;49183;51.380;0.098;2024-02-04T01:17:02;7.50;93.60
63094;DHT22;49183;51.380;0.098;2024-02-04T01:19:30;7.60;93.50
63094;DHT22;49183;51.380;0.098;2024-02-04T01:21:59;7.60;93.50
63094;DHT22;49183;51.380;0.098;2024-02-04T01:24:27;7.70;93.40
63094;DHT22;49183;51.380;0.098;2024-02-04T01:26:55;7.70;93.30
63094;DHT22;49183;51.380;0.098;2024-02-04T01:29:23;7.80;93.20
63094;DHT22;49183;51.380;0.098;2024-02-04T01:31:50;7.80;93.10
63094;DHT22;49183;51.380;0.098;2024-02-04T01:34:18;7.80;93.00
63094;DHT22;49183;51.380;0.098;2024-02-04T01:36:46;7.80;93.00
63094;DHT22;49183;51.380;0.098;2024-02-04T01:39:15;7.90;92.90
63094;DHT22;49183;51.380;0.098;2024-02-04T01:41:42;7.90;92.90
63094;DHT22;49183;51.380;0.098;2024-02-04T01:44:12;7.90;92.80
63094;DHT22;49183;51.380;0.098;2024-02-04T01:46:40;7.90;92.80
63094;DHT22;49183;51.380;0.098;2024-02-04T01:49:09;7.90;92.80
63094;DHT22;49183;51.380;0.098;2024-02-04T01:51:36;7.90;92.80
63094;DHT22;49183;51.380;0.098;2024-02-04T01:54:04;7.90;92.80
63094;DHT22;49183;51.380;0.098;2024-02-04T01:56:32;7.90;92.70
63094;DHT22;49183;51.380;0.098;2024-02-04T01:59:00;7.90;92.80
63094;DHT22;49183;51.380;0.098;2024-02-04T02:01:28;7.90;92.80
63094;DHT22;49183;51.380;0.098;2024-02-04T02:03:56;7.90;92.80
63094;DHT22;49183;51.380;0.098;2024-02-04T02:06:25;7.90;92.70
63094;DHT22;49183;51.380;0.098;2024-02-04T02:08:53;8.00;92.80
63094;DHT22;49183;51.380;0.098;2024-02-04T02:11:27;8.00;92.80
63094;DHT22;49183;51.380;0.098;2024-02-04T02:14:00;7.90;92.80
63094;DHT22;49183;51.380;0.098;2024-02-04T02:16:31;8.00;92.80
63094;DHT22;49183;51.380;0.098;2024-02-04T02:19:04;8.00;92.80
63094;DHT22;49183;51.380;0.098;2024-02-04T02:21:44;8.00;92.80
63094;DHT22;49183;51.380;0.098;2024-02-04T02:26:55;8.00;92.80
63094;DHT22;49183;51.380;0.098;2024-02-04T02:29:26;8.00;92.80
63094;DHT22;49183;51.380;0.098;2024-02-04T02:31:54;8.00;92.80
63094;DHT22;49183;51.380;0.098;2024-02-04T02:34:22;8.00;92.90
63094;DHT22;49183;51.380;0.098;2024-02-04T02:37:09;8.00;92.90
63094;DHT22;49183;51.380;0.098;2024-02-04T02:39:49;8.00;92.80
63094;DHT22;49183;51.380;0.098;2024-02-04T02:42:17;8.00;92.90
63094;DHT22;49183;51.380;0.098;2024-02-04T02:44:46;7.90;92.90
63094;DHT22;49183;51.380;0.098;2024-02-04T02:47:14;8.00;93.00
63094;DHT22;49183;51.380;0.098;2024-02-04T02:49:43;8.00;93.00
63094;DHT22;49183;51.380;0.098;2024-02-04T02:52:11;8.00;93.00
63094;DHT22;49183;51.380;0.098;2024-02-04T02:54:39;8.00;93.00
63094;DHT22;49183;51.380;0.098;2024-02-04T02:57:07;8.10;93.00
63094;DHT22;49183;51.380;0.098;2024-02-04T02:59:35;8.10;93.00
63094;DHT22;49183;51.380;0.098;2024-02-04T03:02:03;8.10;92.90
63094;DHT22;49183;51.380;0.098;2024-02-04T03:04:30;8.10;92.90
63094;DHT22;49183;51.380;0.098;2024-02-04T03:06:58;8.10;92.90
63094;DHT22;49183;51.380;0.098;2024-02-04T03:09:26;8.10;92.90
63094;DHT22;49183;51.380;0.098;2024-02-04T03:11:54;8.10;92.90
63094;DHT22;49183;51.380;0.098;2024-02-04T03:14:21;8.10;92.90
63094;DHT22;49183;51.380;0.098;2024-02-04T03:16:49;8.20;92.90
63094;DHT22;49183;51.380;0.098;2024-02-04T03:19:21;8.20;92.80
63094;DHT22;49183;51.380;0.098;2024-02-04T03:21:49;8.30;92.80
63094;DHT22;49183;51.380;0.098;2024-02-04T03:24:16;8.30;92.80
63094;DHT22;49183;51.380;0.098;2024-02-04T03:26:44;8.30;92.70
63094;DHT22;49183;51.380;0.098;2024-02-04T03:29:12;8.30;92.70
63094;DHT22;49183;51.380;0.098;2024-02-04T03:31:39;8.30;92.70
63094;DHT22;49183;51.380;0.098;2024-02-04T03:34:07;8.30;92.60
63094;DHT22;49183;51.380;0.098;2024-02-04T03:36:36;8.30;92.60
63094;DHT22;49183;51.380;0.098;2024-02-04T03:39:05;8.30;92.70
63094;DHT22;49183;51.380;0.098;2024-02-04T03:41:33;8.30;92.60
63094;DHT22;49183;51.380;0.098;2024-02-04T03:44:01;8.30;92.70
63094;DHT22;49183;51.380;0.098;2024-02-04T03:46:29;8.30;92.70
63094;DHT22;49183;51.380;0.098;2024-02-04T03:48:57;8.30;92.70
63094;DHT22;49183;51.380;0.098;2024-02-04T03:51:25;8.30;92.70
63094;DHT22;49183;51.380;0.098;2024-02-04T03:53:53;8.30;92.70
63094;DHT22;49183;51.380;0.098;2024-02-04T03:56:22;8.30;92.70
63094;DHT22;49183;51.380;0.098;2024-02-04T03:58:50;8.30;92.70
63094;DHT22;49183;51.380;0.098;2024-02-04T04:01:18;8.30;92.70
63094;DHT22;49183;51.380;0.098;2024-02-04T04:03:46;8.30;92.70
63094;DHT22;49183;51.380;0.098;2024-02-04T04:06:13;8.30;92.70
63094;DHT22;49183;51.380;0.098;2024-02-04T04:08:41;8.30;92.70
63094;DHT22;49183;51.380;0.098;2024-02-04T04:11:10;8.30;92.70
63094;DHT22;49183;51.380;0.098;2024-02-04T04:13:38;8.30;92.70
63094;DHT22;49183;51.380;0.098;2024-02-04T04:16:05;8.30;92.60
63094;DHT22;49183;51.380;0.098;2024-02-04T04:18:33;8.30;92.60
63094;DHT22;49183;51.380;0.098;2024-02-04T04:21:01;8.30;92.60
63094;DHT22;49183;51.380;0.098;2024-02-04T04:23:29;8.30;92.60
63094;DHT22;49183;51.380;0.098;2024-02-04T04:25:57;8.40;92.60
63094;DHT22;49183;51.380;0.098;2024-02-04T04:28:25;8.40;92.60
63094;DHT22;49183;51.380;0.098;2024-02-04T04:30:53;8.40;92.60
63094;DHT22;49183;51.380;0.098;2024-02-04T04:33:22;8.40;92.60
63094;DHT22;49183;51.380;0.098;2024-02-04T04:35:50;8.40;92.60
63094;DHT22;49183;51.380;0.098;2024-02-04T04:38:17;8.50;92.60
63094;DHT22;49183;51.380;0.098;2024-02-04T04:40:45;8.50;92.60
63094;DHT22;49183;51.380;0.098;2024-02-04T04:43:13;8.50;92.60
63094;DHT22;49183;51.380;0.098;2024-02-04T04:45:41;8.50;92.60
63094;DHT22;49183;51.380;0.098;2024-02-04T04:48:09;8.60;92.60
63094;DHT22;49183;51.380;0.098;2024-02-04T04:50:38;8.60;92.60
63094;DHT22;49183;51.380;0.098;2024-02-04T04:53:05;8.60;92.60
63094;DHT22;49183;51.380;0.098;2024-02-04T04:55:33;8.60;92.60
63094;DHT22;49183;51.380;0.098;2024-02-04T04:58:01;8.70;92.60
63094;DHT22;49183;51.380;0.098;2024-02-04T05:00:28;8.70;92.60
63094;DHT22;49183;51.380;0.098;2024-02-04T05:02:56;8.70;92.60
63094;DHT22;49183;51.380;0.098;2024-02-04T05:05:24;8.70;92.60
63094;DHT22;49183;51.380;0.098;2024-02-04T05:07:52;8.80;92.50
63094;DHT22;49183;51.380;0.098;2024-02-04T05:10:20;8.80;92.50
63094;DHT22;49183;51.380;0.098;2024-02-04T05:12:47;8.80;92.50
63094;DHT22;49183;51.380;0.098;2024-02-04T05:15:15;8.80;92.50
63094;DHT22;49183;51.380;0.098;2024-02-04T05:17:45;8.80;92.50
63094;DHT22;49183;51.380;0.098;2024-02-04T05:20:12;8.80;92.50
63094;DHT22;49183;51.380;0.098;2024-02-04T05:22:40;8.80;92.50
63094;DHT22;49183;51.380;0.098;2024-02-04T05:25:08;8.90;92.40
63094;DHT22;49183;51.380;0.098;2024-02-04T05:27:36;8.90;92.40
63094;DHT22;49183;51.380;0.098;2024-02-04T05:30:09;8.90;92.40
63094;DHT22;49183;51.380;0.098;2024-02-04T05:32:37;8.90;92.40
63094;DHT22;49183;51.380;0.098;2024-02-04T05:35:07;8.90;92.40
63094;DHT22;49183;51.380;0.098;2024-02-04T05:37:36;8.90;92.40
63094;DHT22;49183;51.380;0.098;2024-02-04T05:40:05;8.90;92.40
63094;DHT22;49183;51.380;0.098;2024-02-04T05:42:33;8.90;92.40
63094;DHT22;49183;51.380;0.098;2024-02-04T05:45:00;8.90;92.40
63094;DHT22;49183;51.380;0.098;2024-02-04T05:47:28;8.90;92.50
63094;DHT22;49183;51.380;0.098;2024-02-04T05:49:56;8.90;92.40
63094;DHT22;49183;51.380;0.098;2024-02-04T05:52:23;8.90;92.50
63094;DHT22;49183;51.380;0.098;2024-02-04T05:54:51;8.90;92.50
63094;DHT22;49183;51.380;0.098;2024-02-04T05:57:18;8.90;92.40
63094;DHT22;49183;51.380;0.098;2024-02-04T05:59:47;8.90;92.40
63094;DHT22;49183;51.380;0.098;2024-02-04T06:02:15;8.90;92.50
63094;DHT22;49183;51.380;0.098;2024-02-04T06:04:43;8.90;92.50
63094;DHT22;49183;51.380;0.098;2024-02-04T06:07:11;8.90;92.60
63094;DHT22;49183;51.380;0.098;2024-02-04T06:09:39;8.90;92.60
63094;DHT22;49183;51.380;0.098;2024-02-04T06:12:08;8.90;92.70
63094;DHT22;49183;51.380;0.098;2024-02-04T06:14:35;8.90;92.70
63094;DHT22;49183;51.380;0.098;2024-02-04T06:17:07;9.00;92.70
63094;DHT22;49183;51.380;0.098;2024-02-04T06:19:38;9.00;92.70
63094;DHT22;49183;51.380;0.098;2024-02-04T06:22:06;9.00;92.70
63094;DHT22;49183;51.380;0.098;2024-02-04T06:24:33;9.00;92.70
63094;DHT22;49183;51.380;0.098;2024-02-04T06:27:01;9.00;92.70
63094;DHT22;49183;51.380;0.098;2024-02-04T06:29:29;9.10;92.80
63094;DHT22;49183;51.380;0.098;2024-02-04T06:31:57;9.00;92.80
63094;DHT22;49183;51.380;0.098;2024-02-04T06:34:24;9.00;92.80
63094;DHT22;49183;51.380;0.098;2024-02-04T06:36:52;9.00;92.80
63094;DHT22;49183;51.380;0.098;2024-02-04T06:39:20;9.00;92.80
63094;DHT22;49183;51.380;0.098;2024-02-04T06:41:48;9.00;92.80
63094;DHT22;49183;51.380;0.098;2024-02-04T06:44:15;9.00;92.90
63094;DHT22;49183;51.380;0.098;2024-02-04T06:46:44;9.00;92.90
63094;DHT22;49183;51.380;0.098;2024-02-04T06:49:13;9.00;92.90
63094;DHT22;49183;51.380;0.098;2024-02-04T06:51:46;9.00;92.90
63094;DHT22;49183;51.380;0.098;2024-02-04T06:54:14;9.00;92.90
63094;DHT22;49183;51.380;0.098;2024-02-04T06:56:42;9.00;93.00
63094;DHT22;49183;51.380;0.098;2024-02-04T06:59:10;9.00;93.00
63094;DHT22;49183;51.380;0.098;2024-02-04T07:01:38;9.00;93.00
63094;DHT22;49183;51.380;0.098;2024-02-04T07:04:05;9.00;93.00
63094;DHT22;49183;51.380;0.098;2024-02-04T07:06:33;9.10;93.00
63094;DHT22;49183;51.380;0.098;2024-02-04T07:09:00;9.00;93.00
63094;DHT22;49183;51.380;0.098;2024-02-04T07:11:30;9.00;93.00
63094;DHT22;49183;51.380;0.098;2024-02-04T07:13:57;9.00;93.00
63094;DHT22;49183;51.380;0.098;2024-02-04T07:16:29;9.00;93.00
63094;DHT22;49183;51.380;0.098;2024-02-04T07:18:57;9.00;93.00
63094;DHT22;49183;51.380;0.098;2024-02-04T07:21:25;9.00;93.00
63094;DHT22;49183;51.380;0.098;2024-02-04T07:23:53;9.00;92.90
63094;DHT22;49183;51.380;0.098;2024-02-04T07:26:22;9.00;92.90
63094;DHT22;49183;51.380;0.098;2024-02-04T07:28:50;9.00;92.90
63094;DHT22;49183;51.380;0.098;2024-02-04T07:31:20;9.10;93.00
63094;DHT22;49183;51.380;0.098;2024-02-04T07:33:49;9.10;92.90
63094;DHT22;49183;51.380;0.098;2024-02-04T07:36:17;9.10;92.90
63094;DHT22;49183;51.380;0.098;2024-02-04T07:38:46;9.10;92.90
63094;DHT22;49183;51.380;0.098;2024-02-04T07:41:14;9.10;92.80
63094;DHT22;49183;51.380;0.098;2024-02-04T07:43:42;9.20;92.80
63094;DHT22;49183;51.380;0.098;2024-02-04T07:46:11;9.20;92.70
63094;DHT22;49183;51.380;0.098;2024-02-04T07:48:39;9.30;92.60
63094;DHT22;49183;51.380;0.098;2024-02-04T07:51:08;9.30;92.60
63094;DHT22;49183;51.380;0.098;2024-02-04T07:53:35;9.30;92.50
63094;DHT22;49183;51.380;0.098;2024-02-04T07:56:06;9.30;92.50
63094;DHT22;49183;51.380;0.098;2024-02-04T07:58:35;9.40;92.40
63094;DHT22;49183;51.380;0.098;2024-02-04T08:01:04;9.40;92.40
63094;DHT22;49183;51.380;0.098;2024-02-04T08:03:31;9.40;92.30
63094;DHT22;49183;51.380;0.098;2024-02-04T08:06:01;9.40;92.30
63094;DHT22;49183;51.380;0.098;2024-02-04T08:08:29;9.40;92.20
63094;DHT22;49183;51.380;0.098;2024-02-04T08:10:57;9.50;92.00
63094;DHT22;49183;51.380;0.098;2024-02-04T08:13:28;9.50;91.90
63094;DHT22;49183;51.380;0.098;2024-02-04T08:15:56;9.50;91.80
63094;DHT22;49183;51.380;0.098;2024-02-04T08:18:23;9.50;91.70
63094;DHT22;49183;51.380;0.098;2024-02-04T08:20:52;9.60;91.50
63094;DHT22;49183;51.380;0.098;2024-02-04T08:23:20;9.60;91.30
63094;DHT22;49183;51.380;0.098;2024-02-04T08:25:48;9.60;91.10
63094;DHT22;49183;51.380;0.098;2024-02-04T08:28:17;9.70;90.90
63094;DHT22;49183;51.380;0.098;2024-02-04T08:30:45;9.70;90.70
63094;DHT22;49183;51.380;0.098;2024-02-04T08:33:13;9.70;90.60
63094;DHT22;49183;51.380;0.098;2024-02-04T08:35:41;9.80;90.40
63094;DHT22;49183;51.380;0.098;2024-02-04T08:38:10;9.80;90.10
63094;DHT22;49183;51.380;0.098;2024-02-04T08:40:37;9.80;90.00
63094;DHT22;49183;51.380;0.098;2024-02-04T08:43:05;9.90;90.00
63094;DHT22;49183;51.380;0.098;2024-02-04T08:45:34;9.90;90.00
63094;DHT22;49183;51.380;0.098;2024-02-04T08:48:02;9.90;90.00
63094;DHT22;49183;51.380;0.098;2024-02-04T08:50:30;9.90;90.00
63094;DHT22;49183;51.380;0.098;2024-02-04T08:53:02;9.90;90.00
63094;DHT22;49183;51.380;0.098;2024-02-04T08:55:30;9.90;90.10
63094;DHT22;49183;51.380;0.098;2024-02-04T08:57:58;9.90;90.20
63094;DHT22;49183;51.380;0.098;2024-02-04T09:00:27;9.90;90.20
63094;DHT22;49183;51.380;0.098;2024-02-04T09:02:56;9.90;90.30
63094;DHT22;49183;51.380;0.098;2024-02-04T09:05:25;9.90;90.30
63094;DHT22;49183;51.380;0.098;2024-02-04T09:07:55;9.90;90.40
63094;DHT22;49183;51.380;0.098;2024-02-04T09:10:23;10.00;90.30
63094;DHT22;49183;51.380;0.098;2024-02-04T09:12:51;10.00;90.30
63094;DHT22;49183;51.380;0.098;2024-02-04T09:15:19;10.00;90.30
63094;DHT22;49183;51.380;0.098;2024-02-04T09:17:47;10.00;90.30
63094;DHT22;49183;51.380;0.098;2024-02-04T09:20:15;10.00;90.30
63094;DHT22;49183;51.380;0.098;2024-02-04T09:22:44;10.10;90.30
63094;DHT22;49183;51.380;0.098;2024-02-04T09:25:12;10.00;90.20
63094;DHT22;49183;51.380;0.098;2024-02-04T09:27:40;10.10;90.20
63094;DHT22;49183;51.380;0.098;2024-02-04T09:30:08;10.10;90.20
63094;DHT22;49183;51.380;0.098;2024-02-04T09:32:37;10.10;90.20
63094;DHT22;49183;51.380;0.098;2024-02-04T09:35:06;10.10;90.00
63094;DHT22;49183;51.380;0.098;2024-02-04T09:37:35;10.10;90.00
63094;DHT22;49183;51.380;0.098;2024-02-04T09:40:04;10.10;90.00
63094;DHT22;49183;51.380;0.098;2024-02-04T09:42:33;10.20;90.00
63094;DHT22;49183;51.380;0.098;2024-02-04T09:45:03;10.20;89.90
63094;DHT22;49183;51.380;0.098;2024-02-04T09:47:32;10.30;89.90
63094;DHT22;49183;51.380;0.098;2024-02-04T09:50:00;10.30;89.90
63094;DHT22;49183;51.380;0.098;2024-02-04T09:52:30;10.30;89.70
63094;DHT22;49183;51.380;0.098;2024-02-04T09:55:02;10.30;89.60
63094;DHT22;49183;51.380;0.098;2024-02-04T09:57:31;10.40;89.50
63094;DHT22;49183;51.380;0.098;2024-02-04T10:00:05;10.30;89.50
63094;DHT22;49183;51.380;0.098;2024-02-04T10:02:40;10.40;89.50
63094;DHT22;49183;51.380;0.098;2024-02-04T10:05:10;10.40;89.40
63094;DHT22;49183;51.380;0.098;2024-02-04T10:07:38;10.40;89.30
63094;DHT22;49183;51.380;0.098;2024-02-04T10:10:07;10.40;89.20
63094;DHT22;49183;51.380;0.098;2024-02-04T10:12:36;10.30;89.20
63094;DHT22;49183;51.380;0.098;2024-02-04T10:15:07;10.30;89.10
63094;DHT22;49183;51.380;0.098;2024-02-04T10:17:35;10.30;89.10
63094;DHT22;49183;51.380;0.098;2024-02-04T10:20:04;10.30;89.20
63094;DHT22;49183;51.380;0.098;2024-02-04T10:22:32;10.30;89.30
63094;DHT22;49183;51.380;0.098;2024-02-04T10:25:07;10.30;89.30
63094;DHT22;49183;51.380;0.098;2024-02-04T10:27:35;10.30;89.30
63094;DHT22;49183;51.380;0.098;2024-02-04T10:30:04;10.40;89.30
63094;DHT22;49183;51.380;0.098;2024-02-04T10:32:33;10.40;89.30
63094;DHT22;49183;51.380;0.098;2024-02-04T10:35:01;10.40;89.40
63094;DHT22;49183;51.380;0.098;2024-02-04T10:37:30;10.50;89.40
63094;DHT22;49183;51.380;0.098;2024-02-04T10:39:58;10.50;89.50
63094;DHT22;49183;51.380;0.098;2024-02-04T10:42:26;10.50;89.50
63094;DHT22;49183;51.380;0.098;2024-02-04T10:44:57;10.60;89.50
63094;DHT22;49183;51.380;0.098;2024-02-04T10:47:29;10.60;89.50
63094;DHT22;49183;51.380;0.098;2024-02-04T10:50:02;10.60;89.60
63094;DHT22;49183;51.380;0.098;2024-02-04T10:52:36;10.70;89.60
63094;DHT22;49183;51.380;0.098;2024-02-04T10:55:09;10.80;89.60
63094;DHT22;49183;51.380;0.098;2024-02-04T10:57:40;10.90;89.60
63094;DHT22;49183;51.380;0.098;2024-02-04T11:00:12;10.90;89.50
63094;DHT22;49183;51.380;0.098;2024-02-04T11:02:44;11.00;89.50
63094;DHT22;49183;51.380;0.098;2024-02-04T11:05:16;11.10;89.60
63094;DHT22;49183;51.380;0.098;2024-02-04T11:07:50;11.20;89.40
63094;DHT22;49183;51.380;0.098;2024-02-04T11:10:21;11.30;89.10
63094;DHT22;49183;51.380;0.098;2024-02-04T11:12:51;11.30;89.00
63094;DHT22;49183;51.380;0.098;2024-02-04T11:15:20;11.30;88.90
63094;DHT22;49183;51.380;0.098;2024-02-04T11:26:11;11.30;89.00
63094;DHT22;49183;51.380;0.098;2024-02-04T11:28:39;11.30;89.00
63094;DHT22;49183;51.380;0.098;2024-02-04T11:31:15;11.30;89.00
63094;DHT22;49183;51.380;0.098;2024-02-04T11:33:45;11.30;89.10
63094;DHT22;49183;51.380;0.098;2024-02-04T11:36:15;11.30;89.10
63094;DHT22;49183;51.380;0.098;2024-02-04T11:38:50;11.40;89.10
63094;DHT22;49183;51.380;0.098;2024-02-04T11:41:24;11.40;89.10
63094;DHT22;49183;51.380;0.098;2024-02-04T11:44:07;11.50;89.10
63094;DHT22;49183;51.380;0.098;2024-02-04T11:46:38;11.50;89.10
63094;DHT22;49183;51.380;0.098;2024-02-04T11:49:14;11.60;89.00
63094;DHT22;49183;51.380;0.098;2024-02-04T11:51:47;11.50;88.90
63094;DHT22;49183;51.380;0.098;2024-02-04T11:54:20;11.50;88.90
63094;DHT22;49183;51.380;0.098;2024-02-04T11:56:50;11.50;89.00
63094;DHT22;49183;51.380;0.098;2024-02-04T11:59:22;11.50;89.00
63094;DHT22;49183;51.380;0.098;2024-02-04T12:01:55;11.50;89.10
63094;DHT22;49183;51.380;0.098;2024-02-04T12:04:27;11.50;89.10
63094;DHT22;49183;51.380;0.098;2024-02-04T12:06:57;11.50;89.20
63094;DHT22;49183;51.380;0.098;2024-02-04T12:09:26;11.50;89.40
63094;DHT22;49183;51.380;0.098;2024-02-04T12:11:55;11.50;89.30
63094;DHT22;49183;51.380;0.098;2024-02-04T12:14:24;11.50;89.40
63094;DHT22;49183;51.380;0.098;2024-02-04T12:16:53;11.50;89.50
63094;DHT22;49183;51.380;0.098;2024-02-04T12:19:21;11.50;89.60
63094;DHT22;49183;51.380;0.098;2024-02-04T12:21:50;11.50;89.60
63094;DHT22;49183;51.380;0.098;2024-02-04T12:24:21;11.60;89.70
63094;DHT22;49183;51.380;0.098;2024-02-04T12:26:53;11.70;89.70
63094;DHT22;49183;51.380;0.098;2024-02-04T12:29:25;11.80;89.80
63094;DHT22;49183;51.380;0.098;2024-02-04T12:31:59;11.80;89.70
63094;DHT22;49183;51.380;0.098;2024-02-04T12:34:30;11.90;89.70
63094;DHT22;49183;51.380;0.098;2024-02-04T12:37:03;12.00;89.70
63094;DHT22;49183;51.380;0.098;2024-02-04T12:39:34;12.10;89.50
63094;DHT22;49183;51.380;0.098;2024-02-04T12:42:05;12.10;89.40
63094;DHT22;49183;51.380;0.098;2024-02-04T12:44:36;12.20;89.30
63094;DHT22;49183;51.380;0.098;2024-02-04T12:47:04;12.20;89.30
63094;DHT22;49183;51.380;0.098;2024-02-04T12:49:33;12.20;89.10
63094;DHT22;49183;51.380;0.098;2024-02-04T12:52:06;12.20;89.00
63094;DHT22;49183;51.380;0.098;2024-02-04T12:54:42;12.10;88.90
63094;DHT22;49183;51.380;0.098;2024-02-04T12:57:22;12.10;88.80
63094;DHT22;49183;51.380;0.098;2024-02-04T12:59:52;12.10;88.70
63094;DHT22;49183;51.380;0.098;2024-02-04T13:02:21;12.20;88.50
63094;DHT22;49183;51.380;0.098;2024-02-04T13:04:49;12.20;88.20
63094;DHT22;49183;51.380;0.098;2024-02-04T13:07:18;12.20;88.10
63094;DHT22;49183;51.380;0.098;2024-02-04T13:09:57;12.30;87.80
63094;DHT22;49183;51.380;0.098;2024-02-04T13:12:25;12.30;87.50
63094;DHT22;49183;51.380;0.098;2024-02-04T13:14:55;12.40;87.20
63094;DHT22;49183;51.380;0.098;2024-02-04T13:17:23;12.40;87.00
63094;DHT22;49183;51.380;0.098;2024-02-04T13:19:54;12.40;86.80
63094;DHT22;49183;51.380;0.098;2024-02-04T13:22:24;12.50;86.80
63094;DHT22;49183;51.380;0.098;2024-02-04T13:24:54;12.50;86.20
63094;DHT22;49183;51.380;0.098;2024-02-04T13:27:24;12.60;85.80
63094;DHT22;49183;51.380;0.098;2024-02-04T13:29:54;12.60;85.60
63094;DHT22;49183;51.380;0.098;2024-02-04T13:32:23;12.70;85.30
63094;DHT22;49183;51.380;0.098;2024-02-04T13:34:53;12.70;85.10
63094;DHT22;49183;51.380;0.098;2024-02-04T13:37:39;12.70;84.70
63094;DHT22;49183;51.380;0.098;2024-02-04T13:40:18;12.70;84.20
63094;DHT22;49183;51.380;0.098;2024-02-04T13:42:48;12.70;84.00
63094;DHT22;49183;51.380;0.098;2024-02-04T13:45:18;12.70;83.90
63094;DHT22;49183;51.380;0.098;2024-02-04T13:47:48;12.70;83.80
63094;DHT22;49183;51.380;0.098;2024-02-04T13:50:16;12.70;83.90
63094;DHT22;49183;51.380;0.098;2024-02-04T13:52:46;12.70;84.00
63094;DHT22;49183;51.380;0.098;2024-02-04T13:55:15;12.70;84.00
63094;DHT22;49183;51.380;0.098;2024-02-04T13:57:45;12.60;83.90
63094;DHT22;49183;51.380;0.098;2024-02-04T14:00:18;12.60;83.80
63094;DHT22;49183;51.380;0.098;2024-02-04T14:02:46;12.50;83.80
63094;DHT22;49183;51.380;0.098;2024-02-04T14:05:15;12.50;83.80
63094;DHT22;49183;51.380;0.098;2024-02-04T14:07:43;12.50;83.90
63094;DHT22;49183;51.380;0.098;2024-02-04T14:10:14;12.40;83.80
63094;DHT22;49183;51.380;0.098;2024-02-04T14:12:43;12.40;83.90
63094;DHT22;49183;51.380;0.098;2024-02-04T14:15:13;12.40;84.10
63094;DHT22;49183;51.380;0.098;2024-02-04T14:17:42;12.30;84.10
63094;DHT22;49183;51.380;0.098;2024-02-04T14:20:10;12.30;84.00
63094;DHT22;49183;51.380;0.098;2024-02-04T14:22:39;12.30;84.10
63094;DHT22;49183;51.380;0.098;2024-02-04T14:25:07;12.30;84.10
63094;DHT22;49183;51.380;0.098;2024-02-04T14:27:36;12.30;84.10
63094;DHT22;49183;51.380;0.098;2024-02-04T14:30:04;12.20;84.30
63094;DHT22;49183;51.380;0.098;2024-02-04T14:32:34;12.20;84.40
63094;DHT22;49183;51.380;0.098;2024-02-04T14:35:03;12.20;84.40
63094;DHT22;49183;51.380;0.098;2024-02-04T14:37:32;12.20;84.50
63094;DHT22;49183;51.380;0.098;2024-02-04T14:40:01;12.20;84.60
63094;DHT22;49183;51.380;0.098;2024-02-04T14:42:32;12.20;84.50
63094;DHT22;49183;51.380;0.098;2024-02-04T14:45:03;12.20;84.60
63094;DHT22;49183;51.380;0.098;2024-02-04T14:47:34;12.10;84.70
63094;DHT22;49183;51.380;0.098;2024-02-04T14:50:05;12.10;84.90
63094;DHT22;49183;51.380;0.098;2024-02-04T14:52:35;12.10;85.00
63094;DHT22;49183;51.380;0.098;2024-02-04T14:55:03;12.10;85.20
63094;DHT22;49183;51.380;0.098;2024-02-04T14:57:33;12.10;85.40
63094;DHT22;49183;51.380;0.098;2024-02-04T15:00:02;12.10;85.40
63094;DHT22;49183;51.380;0.098;2024-02-04T15:02:30;12.10;85.40
63094;DHT22;49183;51.380;0.098;2024-02-04T15:04:58;12.10;85.40
63094;DHT22;49183;51.380;0.098;2024-02-04T15:07:27;12.10;85.50
63094;DHT22;49183;51.380;0.098;2024-02-04T15:09:55;12.00;85.70
63094;DHT22;49183;51.380;0.098;2024-02-04T15:12:25;12.00;85.90
63094;DHT22;49183;51.380;0.098;2024-02-04T15:14:54;12.00;86.10
63094;DHT22;49183;51.380;0.098;2024-02-04T15:17:22;11.90;86.10
63094;DHT22;49183;51.380;0.098;2024-02-04T15:19:50;11.90;86.20
63094;DHT22;49183;51.380;0.098;2024-02-04T15:22:18;11.90;86.30
63094;DHT22;49183;51.380;0.098;2024-02-04T15:24:46;11.80;86.40
63094;DHT22;49183;51.380;0.098;2024-02-04T15:27:14;11.80;86.50
63094;DHT22;49183;51.380;0.098;2024-02-04T15:29:42;11.80;86.60
63094;DHT22;49183;51.380;0.098;2024-02-04T15:32:12;11.80;86.70
63094;DHT22;49183;51.380;0.098;2024-02-04T15:34:43;11.80;86.80
63094;DHT22;49183;51.380;0.098;2024-02-04T15:37:12;11.70;86.90
63094;DHT22;49183;51.380;0.098;2024-02-04T15:39:42;11.70;87.00
63094;DHT22;49183;51.380;0.098;2024-02-04T15:42:11;11.70;87.00
63094;DHT22;49183;51.380;0.098;2024-02-04T15:44:38;11.70;87.10
63094;DHT22;49183;51.380;0.098;2024-02-04T15:47:07;11.70;87.10
63094;DHT22;49183;51.380;0.098;2024-02-04T15:49:39;11.70;87.10
63094;DHT22;49183;51.380;0.098;2024-02-04T15:52:08;11.60;87.20
63094;DHT22;49183;51.380;0.098;2024-02-04T15:54:37;11.60;87.30
63094;DHT22;49183;51.380;0.098;2024-02-04T15:57:06;11.60;87.30
63094;DHT22;49183;51.380;0.098;2024-02-04T15:59:42;11.60;87.30
63094;DHT22;49183;51.380;0.098;2024-02-04T16:02:11;11.60;87.40